Time;durP1;ratioP1;P1;durP2;ratioP2;P2;SDS_P1;SDS_P2;PMS_P1;PMS_P2;Temp;Humidity;BMP_temperature;BMP_pressure;BME280_temperature;BME280_humidity;BME280_pressure;Samples;Min_cycle;Max_cycle;Signal;HPM_P1;HPM_P2
2021/11/29 00:01:11;;;;;;;21.85;13.20;;;;;;;3.17;95.91;97914.25;5031627;28;20226;-72
2021/11/29 00:03:38;;;;;;;20.23;13.40;;;;;;;3.17;96.05;97909.78;5031984;28;20284;-71
2021/11/29 00:06:06;;;;;;;20.65;13.90;;;;;;;3.27;95.18;97916.28;5031395;28;20356;-71
2021/11/29 00:08:32;;;;;;;20.08;12.68;;;;;;;3.16;95.58;97920.47;5031533;28;20699;-71
2021/11/29 00:10:59;;;;;;;19.90;12.80;;;;;;;3.26;94.67;97917.25;5031653;28;20537;-73
2021/11/29 00:13:26;;;;;;;22.73;13.63;;;;;;;3.38;93.59;97922.81;5031725;28;20276;-73
2021/11/29 00:15:54;;;;;;;21.85;13.70;;;;;;;3.45;92.34;97930.38;5031233;28;20261;-71
2021/11/29 00:18:21;;;;;;;21.40;13.15;;;;;;;3.38;92.55;97934.31;5032062;28;20228;-72
2021/11/29 00:20:48;;;;;;;23.50;13.45;;;;;;;3.48;92.30;97927.56;5031771;28;20269;-72
2021/11/29 00:23:15;;;;;;;24.88;13.82;;;;;;;3.42;91.98;97930.56;5024459;28;20215;-71
2021/11/29 00:25:43;;;;;;;20.55;12.82;;;;;;;3.40;92.41;97935.09;5031738;28;20281;-72
2021/11/29 00:28:10;;;;;;;23.05;14.07;;;;;;;3.20;93.87;97941.50;5031489;28;20677;-72
2021/11/29 00:30:37;;;;;;;25.38;14.07;;;;;;;3.25;93.92;97943.91;5031123;28;20237;-73
2021/11/29 00:33:05;;;;;;;26.30;14.07;;;;;;;3.31;93.50;97943.59;5031549;28;20568;-72
2021/11/29 00:35:32;;;;;;;19.30;12.52;;;;;;;3.43;92.69;97952.69;5031630;28;20308;-71
2021/11/29 00:37:59;;;;;;;23.10;14.60;;;;;;;3.61;91.57;97951.66;5031406;28;20292;-71
2021/11/29 00:40:26;;;;;;;20.17;12.90;;;;;;;3.58;90.44;97956.31;5031976;28;20656;-72
2021/11/29 00:42:53;;;;;;;21.52;12.70;;;;;;;3.47;91.52;97952.44;5031273;28;20229;-72
2021/11/29 00:45:19;;;;;;;24.63;14.18;;;;;;;3.39;91.92;97948.47;5031883;28;20347;-72
2021/11/29 00:47:46;;;;;;;20.50;13.68;;;;;;;3.35;92.22;97963.75;5031477;28;20660;-71
2021/11/29 00:50:15;;;;;;;20.75;12.55;;;;;;;3.61;91.28;97956.97;5031223;28;20189;-71
2021/11/29 00:52:42;;;;;;;23.52;13.45;;;;;;;3.68;91.06;97957.50;5031142;28;20230;-72
2021/11/29 00:55:10;;;;;;;23.08;14.27;;;;;;;3.65;91.16;97957.69;5031655;28;20720;-72
2021/11/29 00:57:37;;;;;;;20.27;13.63;;;;;;;3.62;90.33;97966.69;5031563;28;20648;-72
2021/11/29 01:00:05;;;;;;;21.60;13.43;;;;;;;3.57;90.54;97965.22;5023724;28;20238;-71
2021/11/29 01:02:32;;;;;;;24.98;14.88;;;;;;;3.51;91.34;97967.28;5031542;28;20277;-72
2021/11/29 01:04:59;;;;;;;25.05;14.95;;;;;;;3.53;91.60;97973.38;5031505;28;20191;-72
2021/11/29 01:07:27;;;;;;;22.13;13.73;;;;;;;3.55;91.79;97979.50;5031337;28;20325;-72
2021/11/29 01:09:54;;;;;;;29.48;14.30;;;;;;;3.46;92.06;97982.66;5031007;28;20273;-72
2021/11/29 01:12:21;;;;;;;21.33;13.07;;;;;;;3.50;92.57;97988.66;5031431;28;20592;-72
2021/11/29 01:14:47;;;;;;;23.00;13.85;;;;;;;3.62;91.55;97985.31;5030906;28;20233;-72
2021/11/29 01:17:14;;;;;;;24.13;14.52;;;;;;;3.48;92.52;97991.41;5031821;28;20289;-72
2021/11/29 01:19:41;;;;;;;22.67;14.55;;;;;;;3.52;92.70;97992.94;5034838;28;20298;-72
2021/11/29 01:22:08;;;;;;;24.90;14.13;;;;;;;3.41;92.94;97998.00;5034560;28;20245;-72
2021/11/29 01:24:36;;;;;;;22.20;15.07;;;;;;;3.28;94.42;98011.13;5034598;28;20256;-72
2021/11/29 01:27:03;;;;;;;24.25;13.55;;;;;;;3.46;93.52;98011.03;5034461;28;20277;-72
2021/11/29 01:29:30;;;;;;;20.55;12.77;;;;;;;3.37;93.22;98011.53;5034759;28;20229;-73
2021/11/29 01:31:57;;;;;;;22.85;14.32;;;;;;;3.38;93.10;98014.13;5034582;28;20285;-72
2021/11/29 01:34:23;;;;;;;21.23;13.50;;;;;;;3.24;94.02;98016.69;5034736;28;20277;-72
2021/11/29 01:36:50;;;;;;;25.02;13.70;;;;;;;3.15;95.49;98025.16;5034106;28;20242;-72
2021/11/29 01:39:17;;;;;;;21.65;13.40;;;;;;;3.28;95.61;98019.09;5034769;28;20281;-72
2021/11/29 01:41:46;;;;;;;22.42;14.32;;;;;;;3.23;95.33;98022.94;5034287;28;20231;-72
2021/11/29 01:44:13;;;;;;;24.58;14.15;;;;;;;3.22;95.83;98038.03;5034606;28;20237;-72
2021/11/29 01:46:40;;;;;;;21.15;12.55;;;;;;;3.25;95.15;98042.34;5034489;28;20323;-72
2021/11/29 01:49:07;;;;;;;19.05;12.45;;;;;;;3.18;96.16;98048.91;5034384;28;20273;-72
2021/11/29 01:51:34;;;;;;;19.67;12.65;;;;;;;3.17;95.69;98039.25;5034127;28;20476;-72
2021/11/29 01:54:00;;;;;;;18.80;12.20;;;;;;;3.23;95.28;98036.22;5034131;28;20593;-71
2021/11/29 01:56:27;;;;;;;19.42;12.07;;;;;;;2.99;96.67;98054.34;5034083;28;20636;-73
2021/11/29 01:58:55;;;;;;;27.65;14.43;;;;;;;3.08;94.80;98056.53;5033965;28;20289;-72
2021/11/29 02:01:25;;;;;;;19.25;11.43;;;;;;;3.08;93.92;98053.88;5033758;28;20241;-72
2021/11/29 02:03:56;;;;;;;22.40;12.75;;;;;;;3.18;93.91;98054.25;5033869;28;20230;-72
2021/11/29 02:06:24;;;;;;;20.88;12.07;;;;;;;3.30;93.73;98053.56;5034036;28;20189;-72
2021/11/29 02:08:51;;;;;;;18.88;11.98;;;;;;;3.31;92.93;98052.66;5033721;28;20432;-73
2021/11/29 02:11:19;;;;;;;21.65;12.30;;;;;;;3.03;94.04;98058.56;5034014;28;20674;-74
2021/11/29 02:13:46;;;;;;;19.27;11.13;;;;;;;3.13;93.18;98057.16;5034171;28;20352;-73
2021/11/29 02:16:14;;;;;;;18.52;10.73;;;;;;;2.93;93.79;98060.84;5033619;28;20306;-73
2021/11/29 02:18:41;;;;;;;20.42;12.27;;;;;;;3.03;93.57;98062.09;5026216;28;20225;-72
2021/11/29 02:21:11;;;;;;;21.23;11.65;;;;;;;2.91;95.29;98063.56;5033314;28;20582;-73
2021/11/29 02:23:40;;;;;;;18.48;12.23;;;;;;;2.82;95.43;98068.50;5033557;28;20281;-72
2021/11/29 02:26:07;;;;;;;18.50;11.70;;;;;;;2.66;97.13;98069.28;5033338;28;20284;-72
2021/11/29 02:28:35;;;;;;;22.08;11.40;;;;;;;2.63;97.07;98072.09;5033585;28;20287;-72
2021/11/29 02:31:06;;;;;;;18.23;10.65;;;;;;;2.59;96.54;98075.84;5033856;28;20270;-73
2021/11/29 02:33:32;;;;;;;16.38;10.27;;;;;;;2.59;96.40;98062.56;5032894;28;20189;-72
2021/11/29 02:35:59;;;;;;;15.60;9.15;;;;;;;2.56;94.62;98065.38;5033307;28;20312;-72
2021/11/29 02:38:27;;;;;;;15.07;9.93;;;;;;;2.46;94.61;98072.06;5032881;28;20314;-72
2021/11/29 02:40:54;;;;;;;12.40;8.52;;;;;;;2.49;94.80;98075.44;5033386;28;20714;-72
2021/11/29 02:43:20;;;;;;;17.08;8.95;;;;;;;2.44;94.87;98081.91;5033373;28;20645;-72
2021/11/29 02:45:47;;;;;;;16.00;9.95;;;;;;;2.41;95.10;98074.94;5033408;28;20226;-72
2021/11/29 02:48:14;;;;;;;15.93;8.15;;;;;;;2.36;94.37;98074.31;5033184;28;20663;-71
2021/11/29 02:50:40;;;;;;;14.30;8.80;;;;;;;2.32;95.23;98077.22;5033004;28;20284;-72
2021/11/29 02:53:12;;;;;;;14.13;9.25;;;;;;;2.24;97.02;98088.22;5032630;28;20319;-71
2021/11/29 02:55:40;;;;;;;20.65;9.55;;;;;;;2.20;98.26;98090.16;5032868;28;20303;-72
2021/11/29 02:58:07;;;;;;;13.00;8.25;;;;;;;2.18;97.33;98099.97;5033154;28;20663;-71
2021/11/29 03:00:35;;;;;;;17.33;9.02;;;;;;;2.22;96.49;98103.38;5032808;28;20227;-71
2021/11/29 03:03:04;;;;;;;14.15;8.55;;;;;;;2.11;95.57;98111.84;5032743;28;20220;-71
2021/11/29 03:05:30;;;;;;;11.73;8.18;;;;;;;2.04;95.42;98107.75;5032602;28;20223;-71
2021/11/29 03:07:57;;;;;;;9.15;6.55;;;;;;;2.05;94.79;98115.63;5032550;28;20223;-71
2021/11/29 03:10:24;;;;;;;11.55;7.13;;;;;;;2.07;93.67;98119.06;5032621;28;20204;-72
2021/11/29 03:12:53;;;;;;;13.60;6.95;;;;;;;2.08;93.44;98114.63;5032801;28;20280;-72
2021/11/29 03:15:20;;;;;;;11.00;6.88;;;;;;;1.96;94.35;98120.53;5032187;28;20245;-71
2021/11/29 03:17:47;;;;;;;12.18;6.25;;;;;;;2.04;94.37;98124.53;5032351;28;20216;-72
2021/11/29 03:20:14;;;;;;;10.57;7.00;;;;;;;2.07;93.45;98131.50;5032275;28;20234;-72
2021/11/29 03:22:42;;;;;;;10.27;6.45;;;;;;;1.94;93.05;98133.00;5032660;28;20278;-72
2021/11/29 03:25:10;;;;;;;10.45;6.32;;;;;;;1.95;93.39;98132.94;5032085;28;20647;-71
2021/11/29 03:27:37;;;;;;;10.05;7.00;;;;;;;1.91;93.77;98141.13;5032203;28;20243;-72
2021/11/29 03:30:07;;;;;;;9.05;6.32;;;;;;;1.94;93.92;98138.31;5032312;28;20291;-72
2021/11/29 03:32:36;;;;;;;10.18;6.43;;;;;;;1.93;93.19;98144.56;5031891;28;20279;-72
2021/11/29 03:35:04;;;;;;;9.80;6.55;;;;;;;2.07;92.71;98155.38;5031871;28;20192;-71
2021/11/29 03:37:31;;;;;;;7.45;5.60;;;;;;;2.04;92.80;98150.22;5031809;28;20259;-72
2021/11/29 03:39:58;;;;;;;9.20;5.70;;;;;;;1.97;92.92;98159.41;5031708;28;20659;-72
2021/11/29 03:42:24;;;;;;;8.95;6.38;;;;;;;1.82;92.98;98145.03;5032170;28;20271;-72
2021/11/29 03:44:51;;;;;;;9.55;5.80;;;;;;;2.00;91.63;98164.56;5031815;28;20300;-72
2021/11/29 03:47:20;;;;;;;8.68;4.78;;;;;;;1.80;92.45;98158.38;5031752;28;20224;-73
2021/11/29 03:49:49;;;;;;;9.13;5.72;;;;;;;1.70;93.12;98164.16;5032131;28;20275;-72
2021/11/29 03:52:15;;;;;;;5.75;5.15;;;;;;;1.91;91.64;98163.19;5032543;28;20210;-73
2021/11/29 03:54:42;;;;;;;7.03;4.70;;;;;;;1.88;91.52;98166.84;5032433;28;20278;-73
2021/11/29 03:57:09;;;;;;;8.00;5.25;;;;;;;1.86;91.73;98179.34;5023964;28;20296;-72
2021/11/29 03:59:37;;;;;;;8.13;5.63;;;;;;;1.83;91.73;98174.19;5032029;28;20277;-73
2021/11/29 04:02:04;;;;;;;8.85;5.97;;;;;;;1.97;92.07;98172.69;5031809;28;20195;-72
2021/11/29 04:04:32;;;;;;;9.70;5.38;;;;;;;1.90;91.94;98184.50;5032255;28;20984;-73
2021/11/29 04:06:58;;;;;;;8.43;6.22;;;;;;;1.68;92.79;98185.47;5031599;28;20230;-73
2021/11/29 04:09:25;;;;;;;9.13;5.35;;;;;;;1.59;93.57;98186.75;5031828;28;20228;-72
2021/11/29 04:11:52;;;;;;;10.15;6.00;;;;;;;1.61;93.94;98189.34;5032114;28;20290;-72
2021/11/29 04:14:19;;;;;;;8.90;6.20;;;;;;;1.80;92.02;98195.53;5032215;28;20291;-72
2021/11/29 04:16:45;;;;;;;10.55;6.40;;;;;;;1.78;92.12;98202.69;5031320;28;20294;-73
2021/11/29 04:19:12;;;;;;;12.10;6.80;;;;;;;1.73;92.26;98199.41;5032030;28;20231;-72
2021/11/29 04:21:40;;;;;;;8.98;6.50;;;;;;;1.80;91.60;98199.97;5031793;28;20227;-73
2021/11/29 04:24:07;;;;;;;9.30;6.10;;;;;;;1.66;92.30;98204.13;5031764;28;20192;-73
2021/11/29 04:26:34;;;;;;;9.70;6.22;;;;;;;1.82;91.46;98208.75;5031881;28;20201;-72
2021/11/29 04:29:07;;;;;;;12.27;6.68;;;;;;;1.77;91.60;98222.22;5024518;28;20546;-72
2021/11/29 04:31:33;;;;;;;11.23;7.50;;;;;;;1.76;92.08;98220.47;5031629;28;20534;-71
2021/11/29 04:34:00;;;;;;;11.27;6.90;;;;;;;1.71;92.16;98227.78;5031799;28;20275;-71
2021/11/29 04:36:27;;;;;;;12.20;7.43;;;;;;;1.69;92.38;98228.78;5031422;28;20306;-73
2021/11/29 04:38:55;;;;;;;10.50;6.55;;;;;;;1.64;92.67;98229.00;5031915;28;20270;-72
2021/11/29 04:41:21;;;;;;;13.73;7.93;;;;;;;1.58;93.51;98239.88;5031508;28;20290;-73
2021/11/29 04:43:48;;;;;;;10.20;6.55;;;;;;;1.56;94.34;98231.09;5031954;28;20215;-73
2021/11/29 04:46:15;;;;;;;15.82;7.43;;;;;;;1.58;94.00;98239.88;5031612;28;20628;-73
2021/11/29 04:48:41;;;;;;;13.68;6.75;;;;;;;1.51;94.18;98244.56;5031611;28;20617;-73
2021/11/29 04:51:08;;;;;;;10.48;7.40;;;;;;;1.45;95.26;98237.75;5031678;28;20604;-72
2021/11/29 04:53:35;;;;;;;13.55;8.50;;;;;;;1.55;93.72;98237.34;5034340;28;20285;-72
2021/11/29 04:56:04;;;;;;;13.20;8.10;;;;;;;1.41;95.07;98236.16;5035313;28;20191;-71
2021/11/29 04:58:31;;;;;;;14.65;10.15;;;;;;;1.36;96.01;98245.25;5035210;28;20385;-71
2021/11/29 05:00:58;;;;;;;10.43;6.70;;;;;;;1.40;95.91;98247.69;5035038;28;20223;-71
2021/11/29 05:03:24;;;;;;;16.27;8.50;;;;;;;1.27;96.78;98251.78;5034968;28;20295;-73
2021/11/29 05:05:51;;;;;;;12.43;8.15;;;;;;;1.36;97.04;98258.50;5034848;28;20231;-72
2021/11/29 05:08:18;;;;;;;13.77;8.20;;;;;;;1.30;96.82;98254.31;5035021;28;20310;-73
2021/11/29 05:10:45;;;;;;;15.25;8.57;;;;;;;1.30;97.13;98264.91;5034828;28;20289;-72
2021/11/29 05:13:13;;;;;;;14.27;8.60;;;;;;;1.22;97.94;98280.28;5034803;28;20278;-73
2021/11/29 05:15:40;;;;;;;11.35;8.05;;;;;;;1.32;97.44;98276.31;5034853;28;20199;-73
2021/11/29 05:18:07;;;;;;;18.90;9.02;;;;;;;1.30;97.31;98280.81;5034950;28;20226;-72
2021/11/29 05:20:33;;;;;;;15.82;9.30;;;;;;;1.24;98.22;98296.97;5034914;28;20196;-72
2021/11/29 05:23:00;;;;;;;15.18;8.70;;;;;;;1.29;98.65;98302.97;5034892;28;20638;-72
2021/11/29 05:25:27;;;;;;;15.18;8.60;;;;;;;1.23;99.12;98301.44;5034835;28;20591;-72
2021/11/29 05:27:54;;;;;;;16.55;9.93;;;;;;;1.37;97.29;98306.16;5034341;28;20291;-72
2021/11/29 05:30:22;;;;;;;15.45;9.30;;;;;;;1.36;97.84;98314.19;5034262;28;20223;-73
2021/11/29 05:32:50;;;;;;;17.63;9.70;;;;;;;1.24;98.82;98315.53;5034836;28;20223;-71
2021/11/29 05:35:17;;;;;;;16.45;10.00;;;;;;;1.44;99.49;98320.88;5034578;28;20650;-72
2021/11/29 05:37:44;;;;;;;18.35;10.05;;;;;;;1.36;99.08;98328.31;5034937;28;20239;-71
2021/11/29 05:40:12;;;;;;;18.42;10.05;;;;;;;1.38;98.59;98329.13;5045507;28;20234;-73
2021/11/29 05:42:39;;;;;;;19.90;10.40;;;;;;;1.39;97.47;98333.47;5034840;28;20627;-73
2021/11/29 05:45:06;;;;;;;14.13;9.48;;;;;;;1.27;97.94;98333.13;5034820;28;20216;-72
2021/11/29 05:47:34;;;;;;;15.70;9.80;;;;;;;1.21;98.72;98332.44;5033331;28;20275;-73
2021/11/29 05:50:01;;;;;;;13.82;10.73;;;;;;;1.14;99.55;98349.53;5034467;28;20294;-73
2021/11/29 05:52:28;;;;;;;16.33;10.32;;;;;;;1.25;99.56;98346.44;5034209;28;20279;-73
2021/11/29 05:54:54;;;;;;;17.90;10.00;;;;;;;1.22;98.50;98344.78;5034631;28;20278;-72
2021/11/29 05:57:21;;;;;;;17.75;11.00;;;;;;;1.26;98.81;98356.13;5034410;28;20660;-74
2021/11/29 05:59:48;;;;;;;17.20;10.95;;;;;;;1.12;98.99;98366.44;5034370;28;20667;-72
2021/11/29 06:02:14;;;;;;;14.20;9.90;;;;;;;1.22;98.46;98367.75;5034203;28;20267;-71
2021/11/29 06:04:42;;;;;;;24.83;11.57;;;;;;;1.15;98.29;98371.59;5033804;28;20278;-73
2021/11/29 06:07:09;;;;;;;16.08;9.50;;;;;;;0.91;100.00;98384.91;5033940;28;20286;-73
2021/11/29 06:09:35;;;;;;;19.88;10.38;;;;;;;1.00;100.00;98384.53;5029157;28;20246;-72
2021/11/29 06:12:02;;;;;;;18.38;10.82;;;;;;;1.14;99.61;98399.03;5023096;28;20274;-70
2021/11/29 06:14:29;;;;;;;19.73;10.52;;;;;;;1.14;99.12;98396.41;5033025;28;20286;-71
2021/11/29 06:16:56;;;;;;;16.98;10.55;;;;;;;1.24;98.98;98405.69;5033518;28;20637;-72
2021/11/29 06:19:23;;;;;;;19.48;10.88;;;;;;;1.35;98.17;98410.59;5033987;28;20194;-71
2021/11/29 06:21:51;;;;;;;18.77;10.85;;;;;;;1.49;96.60;98396.75;5033013;28;20234;-71
2021/11/29 06:24:17;;;;;;;17.08;9.70;;;;;;;1.64;96.38;98409.41;5034181;28;20260;-71
2021/11/29 06:26:44;;;;;;;19.83;10.60;;;;;;;1.60;95.09;98411.31;5033911;28;20271;-71
2021/11/29 06:29:11;;;;;;;16.27;10.30;;;;;;;1.82;93.65;98415.75;5034074;28;20242;-71
2021/11/29 06:31:39;;;;;;;17.50;10.85;;;;;;;1.65;93.80;98417.31;5033073;28;20283;-71
2021/11/29 06:34:06;;;;;;;17.92;10.80;;;;;;;1.62;93.13;98413.91;5030931;28;20206;-71
2021/11/29 06:36:32;;;;;;;20.33;10.98;;;;;;;1.69;92.21;98418.03;5032692;28;20227;-71
2021/11/29 06:39:01;;;;;;;20.42;11.70;;;;;;;1.60;92.50;98421.94;5033394;28;20219;-72
2021/11/29 06:41:28;;;;;;;17.35;11.38;;;;;;;1.61;93.13;98430.78;5033180;28;20620;-73
2021/11/29 06:43:55;;;;;;;15.88;10.75;;;;;;;1.48;94.89;98426.88;5033023;28;20312;-71
2021/11/29 06:46:21;;;;;;;19.45;12.10;;;;;;;1.49;95.30;98436.56;5032407;28;20278;-72
2021/11/29 06:48:50;;;;;;;14.63;11.13;;;;;;;1.45;95.34;98436.69;5033607;28;20231;-72
2021/11/29 06:51:17;;;;;;;18.83;11.63;;;;;;;1.42;95.82;98444.75;5033955;28;20544;-72
2021/11/29 06:53:44;;;;;;;23.85;12.88;;;;;;;1.52;94.86;98450.56;5033598;28;20214;-72
2021/11/29 06:56:12;;;;;;;21.35;11.40;;;;;;;1.39;95.68;98454.63;5033004;28;20188;-72
2021/11/29 06:58:39;;;;;;;19.60;11.73;;;;;;;1.31;95.86;98456.72;5033383;28;20313;-73
2021/11/29 07:01:06;;;;;;;22.42;11.95;;;;;;;1.40;96.23;98456.34;5033530;28;20223;-72
2021/11/29 07:03:34;;;;;;;16.00;10.90;;;;;;;1.39;95.07;98466.09;5032907;28;20248;-70
2021/11/29 07:06:01;;;;;;;21.33;11.82;;;;;;;1.28;95.38;98470.94;5032910;28;20200;-70
2021/11/29 07:08:28;;;;;;;21.80;11.88;;;;;;;1.32;95.44;98479.66;5032828;28;20261;-73
2021/11/29 07:10:55;;;;;;;19.75;12.82;;;;;;;1.30;95.27;98487.66;5032670;28;20199;-74
2021/11/29 07:13:23;;;;;;;28.55;12.98;;;;;;;1.27;95.63;98501.06;5032967;28;20208;-72
2021/11/29 07:15:50;;;;;;;20.55;13.02;;;;;;;1.20;96.06;98503.06;5032605;28;20224;-73
2021/11/29 07:18:17;;;;;;;20.65;11.90;;;;;;;1.17;96.19;98497.00;5032540;28;20249;-72
2021/11/29 07:20:45;;;;;;;20.83;13.05;;;;;;;1.31;95.87;98504.44;5032476;28;20365;-73
2021/11/29 07:23:12;;;;;;;19.98;12.52;;;;;;;1.28;95.83;98499.25;5029967;28;20279;-73
2021/11/29 07:25:39;;;;;;;20.52;12.18;;;;;;;1.25;96.19;98500.25;5012896;28;20239;-73
2021/11/29 07:28:06;;;;;;;20.02;12.02;;;;;;;1.22;96.79;98501.25;5028953;28;20266;-72
2021/11/29 07:30:34;;;;;;;20.30;12.25;;;;;;;1.49;94.69;98500.22;5012631;28;20622;-73
2021/11/29 07:33:00;;;;;;;18.83;12.55;;;;;;;1.41;94.00;98514.66;5013140;28;20235;-72
2021/11/29 07:35:29;;;;;;;21.23;12.23;;;;;;;1.34;93.84;98514.94;5013274;28;20231;-73
2021/11/29 07:37:56;;;;;;;22.00;11.93;;;;;;;1.31;93.88;98520.34;5013031;28;20349;-73
2021/11/29 07:40:28;;;;;;;25.17;12.77;;;;;;;1.31;93.53;98529.19;5012581;28;20291;-71
2021/11/29 07:42:55;;;;;;;18.17;12.10;;;;;;;1.31;93.93;98534.50;5013306;28;20235;-72
2021/11/29 07:45:22;;;;;;;22.63;13.48;;;;;;;1.38;93.94;98540.41;5012766;28;20283;-74
2021/11/29 07:47:50;;;;;;;21.75;12.68;;;;;;;1.50;93.85;98547.06;5012838;28;20294;-72
2021/11/29 07:50:18;;;;;;;21.48;12.98;;;;;;;1.50;93.61;98547.06;5012942;28;20224;-72
2021/11/29 07:52:46;;;;;;;20.88;12.27;;;;;;;1.49;92.77;98534.72;5012482;28;20273;-70
2021/11/29 07:55:15;;;;;;;25.20;12.88;;;;;;;1.52;92.64;98539.91;5012605;28;20241;-71
2021/11/29 07:57:42;;;;;;;24.02;14.18;;;;;;;1.51;92.02;98543.47;5012169;28;20228;-72
2021/11/29 08:00:12;;;;;;;19.15;12.70;;;;;;;1.61;92.07;98553.69;5012559;28;20223;-73
2021/11/29 08:02:39;;;;;;;22.70;12.43;;;;;;;1.45;92.26;98556.06;5012713;28;20261;-72
2021/11/29 08:05:08;;;;;;;22.02;13.38;;;;;;;1.44;92.18;98561.41;5012192;28;20325;-72
2021/11/29 08:07:35;;;;;;;20.60;12.50;;;;;;;1.45;91.79;98564.00;5012325;28;20228;-72
2021/11/29 08:10:01;;;;;;;20.83;12.65;;;;;;;1.47;92.10;98561.31;5012236;28;20278;-72
2021/11/29 08:12:28;;;;;;;20.27;13.00;;;;;;;1.49;91.77;98566.53;5011937;28;20288;-72
2021/11/29 08:14:55;;;;;;;21.77;13.30;;;;;;;1.48;91.55;98578.09;5012275;28;20615;-72
2021/11/29 08:17:22;;;;;;;23.10;14.32;;;;;;;1.54;91.42;98578.72;5011657;28;20254;-72
2021/11/29 08:19:49;;;;;;;22.65;12.90;;;;;;;1.56;90.49;98584.84;5012322;28;20210;-72
2021/11/29 08:22:18;;;;;;;22.80;12.98;;;;;;;1.74;89.06;98595.66;5012080;28;20614;-72
2021/11/29 08:24:45;;;;;;;20.83;11.57;;;;;;;1.85;87.67;98590.81;5011744;28;20238;-71
2021/11/29 08:27:11;;;;;;;23.80;12.25;;;;;;;1.84;87.54;98597.91;5013908;28;20270;-71
2021/11/29 08:29:38;;;;;;;20.98;11.65;;;;;;;2.02;86.98;98598.97;5015995;28;20239;-71
2021/11/29 08:32:06;;;;;;;19.08;10.93;;;;;;;2.10;85.87;98590.69;5015972;28;20216;-72
2021/11/29 08:34:34;;;;;;;16.48;11.18;;;;;;;1.91;85.59;98595.88;5015922;28;20227;-72
2021/11/29 08:37:01;;;;;;;19.77;10.57;;;;;;;1.97;85.75;98594.78;5015569;28;20195;-72
2021/11/29 08:39:29;;;;;;;13.60;10.25;;;;;;;1.78;86.55;98600.78;5016062;28;20718;-72
2021/11/29 08:41:55;;;;;;;18.90;11.13;;;;;;;1.72;87.79;98609.00;5015701;28;20199;-71
2021/11/29 08:44:22;;;;;;;17.67;10.57;;;;;;;1.80;87.81;98608.69;5015892;28;20272;-73
2021/11/29 08:46:49;;;;;;;20.80;12.70;;;;;;;1.68;87.69;98615.34;5016008;28;20737;-72
2021/11/29 08:49:16;;;;;;;18.27;11.00;;;;;;;1.68;88.32;98620.66;5015941;28;20527;-73
2021/11/29 08:51:43;;;;;;;17.10;10.55;;;;;;;1.63;87.47;98614.66;5015713;28;20290;-72
2021/11/29 08:54:11;;;;;;;19.75;13.25;;;;;;;1.80;87.61;98614.88;5015411;28;20655;-71
2021/11/29 08:56:39;;;;;;;25.45;12.20;;;;;;;1.78;86.96;98616.72;5015904;28;20290;-72
2021/11/29 08:59:06;;;;;;;20.70;12.68;;;;;;;1.98;86.79;98628.38;5015426;28;20205;-72
2021/11/29 09:01:34;;;;;;;17.45;10.80;;;;;;;2.01;86.41;98633.53;5015728;28;20529;-71
2021/11/29 09:04:01;;;;;;;18.75;11.60;;;;;;;2.02;84.83;98632.63;5015490;28;20279;-72
2021/11/29 09:06:27;;;;;;;18.63;10.73;;;;;;;2.16;84.61;98624.97;5015442;28;20240;-73
2021/11/29 09:08:54;;;;;;;24.60;13.27;;;;;;;2.50;84.36;98626.28;5015425;28;20651;-73
2021/11/29 09:11:21;;;;;;;21.30;13.05;;;;;;;3.04;81.99;98637.34;5015095;28;20228;-73
2021/11/29 09:13:49;;;;;;;17.88;10.50;;;;;;;3.25;79.26;98644.38;5015569;28;20617;-72
2021/11/29 09:16:17;;;;;;;18.63;10.90;;;;;;;3.26;78.39;98655.91;5015117;28;20280;-72
2021/11/29 09:18:45;;;;;;;20.90;11.40;;;;;;;2.99;79.45;98652.63;5015281;28;20250;-73
2021/11/29 09:21:14;;;;;;;15.82;10.20;;;;;;;3.10;78.82;98664.53;5015032;28;20292;-72
2021/11/29 09:23:42;;;;;;;16.02;11.18;;;;;;;3.15;79.48;98661.69;5015295;28;20285;-72
2021/11/29 09:26:09;;;;;;;17.63;11.80;;;;;;;3.38;77.78;98660.69;5015197;28;20713;-72
2021/11/29 09:28:36;;;;;;;15.27;10.13;;;;;;;3.49;77.11;98653.09;5015538;28;20248;-73
2021/11/29 09:31:04;;;;;;;17.55;10.20;;;;;;;2.96;78.34;98672.22;5014756;28;20225;-72
2021/11/29 09:33:31;;;;;;;15.20;10.77;;;;;;;2.92;79.59;98678.63;5015048;28;20244;-73
2021/11/29 09:35:57;;;;;;;17.48;10.20;;;;;;;3.11;78.43;98671.56;5015244;28;20657;-72
2021/11/29 09:38:24;;;;;;;16.38;10.30;;;;;;;3.09;78.45;98681.41;5014417;28;20317;-73
2021/11/29 09:40:52;;;;;;;16.48;10.25;;;;;;;3.04;78.90;98680.75;5014971;28;20284;-73
2021/11/29 09:43:20;;;;;;;18.38;10.15;;;;;;;3.22;78.32;98678.25;5014830;28;20215;-73
2021/11/29 09:45:48;;;;;;;15.63;10.38;;;;;;;3.31;77.31;98688.50;5014341;28;20229;-72
2021/11/29 09:48:17;;;;;;;19.70;10.75;;;;;;;3.29;77.92;98690.34;5014702;28;20195;-72
2021/11/29 09:50:46;;;;;;;18.33;9.95;;;;;;;3.32;77.99;98696.41;5014483;28;20189;-72
2021/11/29 09:53:15;;;;;;;15.15;9.23;;;;;;;3.22;78.02;98688.91;5032381;28;20218;-73
2021/11/29 09:55:42;;;;;;;12.75;9.73;;;;;;;3.12;78.19;98689.28;5034193;28;20285;-73
2021/11/29 09:58:09;;;;;;;16.48;9.80;;;;;;;3.42;76.83;98693.34;5034150;28;20256;-72
2021/11/29 10:00:38;;;;;;;20.52;10.52;;;;;;;3.27;76.84;98702.84;5033938;28;20212;-72
2021/11/29 10:03:07;;;;;;;17.35;10.65;;;;;;;3.42;76.46;98699.53;5034291;28;20284;-71
2021/11/29 10:05:36;;;;;;;14.32;9.30;;;;;;;3.76;75.46;98706.91;5034003;28;20222;-70
2021/11/29 10:08:20;;;;;;;16.23;9.13;;;;;;;3.90;74.19;98702.75;5033887;28;20733;-71
2021/11/29 10:10:48;;;;;;;14.93;8.73;;;;;;;3.19;75.94;98707.63;5033872;28;20197;-71
2021/11/29 10:13:15;;;;;;;11.27;7.68;;;;;;;3.01;76.96;98707.50;5034118;28;20278;-71
2021/11/29 10:15:42;;;;;;;13.93;8.77;;;;;;;3.16;77.36;98711.28;5034167;28;20241;-71
2021/11/29 10:18:12;;;;;;;11.75;7.80;;;;;;;3.54;76.41;98700.78;5033713;28;20301;-71
2021/11/29 10:20:51;;;;;;;15.20;8.90;;;;;;;3.63;75.68;98702.19;5034164;28;20269;-71
2021/11/29 10:23:25;;;;;;;14.95;7.78;;;;;;;3.85;74.43;98694.97;5033864;28;20541;-71
2021/11/29 10:25:52;;;;;;;11.07;7.90;;;;;;;4.02;73.65;98693.34;5033967;28;20270;-71
2021/11/29 10:28:28;;;;;;;12.38;8.65;;;;;;;4.11;72.89;98695.56;5034141;28;20658;-72
2021/11/29 10:31:07;;;;;;;11.50;8.43;;;;;;;4.02;73.64;98693.34;5033908;28;20193;-71
2021/11/29 10:33:34;;;;;;;14.57;7.88;;;;;;;4.19;73.10;98693.44;5033512;28;20226;-71
2021/11/29 10:36:11;;;;;;;14.60;7.97;;;;;;;4.27;72.58;98688.59;5033625;28;20277;-71
2021/11/29 10:38:39;;;;;;;10.18;7.93;;;;;;;4.71;71.00;98692.75;5033992;28;20653;-70
2021/11/29 10:41:06;;;;;;;10.15;7.50;;;;;;;4.48;71.08;98688.53;5033983;28;20634;-71
2021/11/29 10:43:40;;;;;;;9.40;7.32;;;;;;;4.57;70.58;98688.09;5033583;28;20236;-71
2021/11/29 10:46:25;;;;;;;14.32;7.45;;;;;;;4.32;72.01;98701.69;5033409;28;20190;-71
2021/11/29 10:48:55;;;;;;;12.63;6.68;;;;;;;4.14;71.93;98696.31;5033499;28;20273;-72
2021/11/29 10:51:24;;;;;;;13.75;6.95;;;;;;;3.90;73.05;98705.41;5029122;28;20206;-71
2021/11/29 10:53:54;;;;;;;13.73;7.10;;;;;;;3.69;74.57;98705.44;5013327;28;20238;-71
2021/11/29 10:56:23;;;;;;;14.15;8.57;;;;;;;3.91;74.45;98716.00;5013743;28;20187;-71
2021/11/29 10:58:52;;;;;;;16.45;8.52;;;;;;;3.80;74.85;98720.06;5013006;28;20321;-71
2021/11/29 11:01:32;;;;;;;15.65;8.65;;;;;;;3.90;74.36;98730.25;5013256;28;20226;-71
2021/11/29 11:03:59;;;;;;;13.43;7.15;;;;;;;3.69;74.57;98715.25;5012841;28;20193;-72
2021/11/29 11:06:30;;;;;;;13.57;8.35;;;;;;;3.99;74.88;98712.13;5013047;28;20289;-72
2021/11/29 11:08:57;;;;;;;9.60;6.68;;;;;;;4.03;72.98;98727.03;5012801;28;20318;-71
2021/11/29 11:11:35;;;;;;;10.20;6.78;;;;;;;3.87;74.07;98722.41;5013158;28;20293;-72
2021/11/29 11:14:06;;;;;;;9.00;6.90;;;;;;;3.85;74.81;98716.28;5013215;28;20274;-71
2021/11/29 11:16:56;;;;;;;10.45;7.43;;;;;;;3.80;75.22;98722.72;5012868;28;20274;-72
2021/11/29 11:19:25;;;;;;;11.27;6.50;;;;;;;3.71;75.56;98719.56;5010594;28;20219;-72
2021/11/29 11:21:54;;;;;;;13.35;8.15;;;;;;;3.67;76.18;98720.63;5012881;28;20302;-72
2021/11/29 11:24:27;;;;;;;14.00;8.63;;;;;;;3.94;75.20;98725.66;5013318;28;20238;-71
2021/11/29 11:26:57;;;;;;;12.75;7.25;;;;;;;4.15;74.44;98729.13;5013269;28;20230;-72
2021/11/29 11:29:42;;;;;;;11.73;7.57;;;;;;;4.15;74.02;98727.34;5014091;28;20208;-71
2021/11/29 11:32:19;;;;;;;11.38;6.95;;;;;;;4.03;73.34;98730.56;5012555;28;20226;-70